createdAt,value
2024-02-07T00:03:13.376Z,7.00
2024-02-07T00:08:22.484Z,3.90
2024-02-07T00:13:30.498Z,5.90
2024-02-07T00:18:38.626Z,3.90
2024-02-07T00:23:46.550Z,3.10
2024-02-07T00:28:54.788Z,5.50
2024-02-07T00:34:02.841Z,3.90
2024-02-07T00:39:11.429Z,3.30
2024-02-07T00:44:19.548Z,6.00
2024-02-07T00:49:27.779Z,3.50
2024-02-07T00:54:35.997Z,5.40
2024-02-07T00:59:43.337Z,5.50
2024-02-07T01:04:51.754Z,3.80
2024-02-07T01:09:59.770Z,4.10
2024-02-07T01:15:08.533Z,5.00
2024-02-07T01:20:16.937Z,3.80
2024-02-07T01:25:27.048Z,7.20
2024-02-07T01:30:35.201Z,6.70
2024-02-07T01:35:43.346Z,5.40
2024-02-07T01:40:51.865Z,5.10
2024-02-07T01:46:01.050Z,1.40
2024-02-07T01:51:09.795Z,0.60
2024-02-07T01:56:18.824Z,1.50
2024-02-07T02:01:26.569Z,0.40
2024-02-07T02:06:34.186Z,0.20
2024-02-07T02:11:44.249Z,0.40
2024-02-07T02:16:52.691Z,0.30
2024-02-07T02:22:26.711Z,0.50
2024-02-07T02:27:48.722Z,1.20
2024-02-07T02:32:57.227Z,0.20
2024-02-07T02:38:05.597Z,1.30
2024-02-07T02:43:13.917Z,1.00
2024-02-07T02:48:22.603Z,0.60
2024-02-07T02:53:34.411Z,0.30
2024-02-07T02:58:44.571Z,1.90
2024-02-07T03:03:56.153Z,0.50
2024-02-07T03:09:10.893Z,2.40
2024-02-07T03:14:19.992Z,0.70
2024-02-07T03:19:28.679Z,1.70
2024-02-07T03:24:36.901Z,2.10
2024-02-07T03:29:45.613Z,0.30
2024-02-07T03:34:53.110Z,1.40
2024-02-07T03:40:01.453Z,0.30
2024-02-07T03:45:12.415Z,1.30
2024-02-07T03:50:27.594Z,0.20
2024-02-07T03:55:37.508Z,0.40
2024-02-07T04:06:29.810Z,1.40
2024-02-07T04:11:35.772Z,0.90
2024-02-07T04:17:01.066Z,1.20
2024-02-07T04:22:25.517Z,1.30
2024-02-07T04:27:49.871Z,0.60
2024-02-07T04:33:14.740Z,1.10
2024-02-07T04:38:43.144Z,2.70
2024-02-07T04:44:08.068Z,1.40
2024-02-07T04:49:32.463Z,1.50
2024-02-07T04:54:56.959Z,1.00
2024-02-07T05:00:21.651Z,0.50
2024-02-07T05:05:46.979Z,2.00
2024-02-07T05:11:11.660Z,1.40
2024-02-07T05:16:19.037Z,2.50
2024-02-07T05:21:26.779Z,0.70
2024-02-07T05:26:36.794Z,2.70
2024-02-07T05:31:44.184Z,5.30
2024-02-07T05:36:51.602Z,0.80
2024-02-07T05:41:59.138Z,0.90
2024-02-07T05:47:07.499Z,2.40
2024-02-07T05:52:32.335Z,2.40
2024-02-07T05:57:39.872Z,8.30
2024-02-07T06:02:47.188Z,2.70
2024-02-07T06:07:54.795Z,1.20
2024-02-07T06:13:02.241Z,2.30
2024-02-07T06:18:10.064Z,2.70
2024-02-07T06:23:17.548Z,5.10
2024-02-07T06:28:25.001Z,2.30
2024-02-07T06:33:32.381Z,6.70
2024-02-07T06:38:39.840Z,3.10
2024-02-07T06:43:47.257Z,2.40
2024-02-07T06:48:54.872Z,4.60
2024-02-07T06:54:02.337Z,7.00
2024-02-07T06:59:13.083Z,5.30
2024-02-07T07:04:20.661Z,3.90
2024-02-07T07:09:28.025Z,2.80
2024-02-07T07:14:35.590Z,5.00
2024-02-07T07:19:43.047Z,2.30
2024-02-07T07:24:50.756Z,7.10
2024-02-07T07:29:58.219Z,7.90
2024-02-07T07:35:05.985Z,6.30
2024-02-07T07:40:14.845Z,9.00
2024-02-07T07:45:22.580Z,8.40
2024-02-07T07:50:32.667Z,9.10
2024-02-07T07:55:40.067Z,7.60
2024-02-07T08:00:51.820Z,6.30
2024-02-07T08:05:59.528Z,10.10
2024-02-07T08:11:07.090Z,16.90
2024-02-07T08:16:14.715Z,7.80
2024-02-07T08:21:22.041Z,7.20
2024-02-07T08:26:29.533Z,8.30
2024-02-07T08:31:37.116Z,6.00
2024-02-07T08:36:44.604Z,2.80
2024-02-07T08:41:51.846Z,6.00
2024-02-07T08:46:59.054Z,7.20
2024-02-07T08:52:06.418Z,4.60
2024-02-07T08:57:13.704Z,6.10
2024-02-07T09:02:21.572Z,6.80
2024-02-07T09:07:28.881Z,7.80
2024-02-07T09:12:36.089Z,5.60
2024-02-07T09:17:43.265Z,5.80
2024-02-07T09:22:50.520Z,3.70
2024-02-07T09:27:59.166Z,6.90
2024-02-07T09:33:08.091Z,2.00
2024-02-07T09:38:20.590Z,8.50
2024-02-07T09:43:28.498Z,4.70
2024-02-07T09:48:36.331Z,10.00
2024-02-07T09:53:44.293Z,6.90
2024-02-07T09:58:52.059Z,5.80
2024-02-07T10:04:03.455Z,5.60
2024-02-07T10:09:10.987Z,3.70
2024-02-07T10:14:19.785Z,5.10
2024-02-07T10:19:27.617Z,9.90
2024-02-07T10:24:36.136Z,6.80
2024-02-07T10:29:43.758Z,5.30
2024-02-07T10:34:58.114Z,5.40
2024-02-07T10:40:10.267Z,5.50
2024-02-07T10:45:17.844Z,3.80
2024-02-07T10:50:26.199Z,6.30
2024-02-07T10:55:34.391Z,1.10
2024-02-07T11:00:42.031Z,6.50
2024-02-07T11:05:50.092Z,3.40
2024-02-07T11:10:59.461Z,3.50
2024-02-07T11:16:09.736Z,1.10
2024-02-07T11:21:21.645Z,3.40
2024-02-07T11:26:31.111Z,5.50
2024-02-07T11:31:42.207Z,2.60
2024-02-07T11:36:58.127Z,3.60
2024-02-07T11:42:14.040Z,3.80
2024-02-07T11:47:28.974Z,2.10
2024-02-07T11:52:41.346Z,1.60
2024-02-07T11:57:54.430Z,2.50
2024-02-07T12:03:03.914Z,1.50
2024-02-07T12:08:12.507Z,3.20
2024-02-07T12:13:20.970Z,4.90
2024-02-07T12:18:29.648Z,3.90
2024-02-07T12:23:38.247Z,5.50
2024-02-07T12:28:46.557Z,5.50
2024-02-07T12:33:54.966Z,2.80
2024-02-07T12:39:03.221Z,5.80
2024-02-07T12:44:15.595Z,2.60
2024-02-07T12:49:26.865Z,3.90
2024-02-07T12:54:34.507Z,2.60
2024-02-07T12:59:42.828Z,1.60
2024-02-07T13:04:51.321Z,2.00
2024-02-07T13:09:59.706Z,3.10
2024-02-07T13:15:09.232Z,3.30
2024-02-07T13:20:21.767Z,1.60
2024-02-07T13:25:32.254Z,2.90
2024-02-07T13:30:40.456Z,3.90
2024-02-07T13:35:50.092Z,0.90
2024-02-07T13:40:59.025Z,1.00
2024-02-07T13:46:07.560Z,0.90
2024-02-07T13:51:15.294Z,1.90
2024-02-07T13:56:23.832Z,2.70
2024-02-07T14:01:32.530Z,1.70
2024-02-07T14:06:40.861Z,2.20
2024-02-07T14:11:48.138Z,2.10
2024-02-07T14:16:57.249Z,0.60
2024-02-07T14:22:04.909Z,1.30
2024-02-07T14:27:13.957Z,2.70
2024-02-07T14:32:21.777Z,2.70
2024-02-07T14:37:30.078Z,4.90
2024-02-07T14:42:38.512Z,2.80
2024-02-07T14:47:46.980Z,2.60
2024-02-07T14:52:55.408Z,3.80
2024-02-07T14:58:04.070Z,5.10
2024-02-07T15:03:13.444Z,2.90
2024-02-07T15:08:20.846Z,4.30
2024-02-07T15:13:29.135Z,3.80
2024-02-07T15:18:37.252Z,5.30
2024-02-07T15:23:45.325Z,5.40
2024-02-07T15:28:53.548Z,5.10
2024-02-07T15:34:02.311Z,3.80
2024-02-07T15:39:10.887Z,3.90
2024-02-07T15:44:19.270Z,4.40
2024-02-07T15:49:27.197Z,5.20
2024-02-07T15:54:40.248Z,9.40
2024-02-07T15:59:48.430Z,13.50
2024-02-07T16:04:57.291Z,23.10
2024-02-07T16:10:04.756Z,25.80
2024-02-07T16:15:13.958Z,33.40
2024-02-07T16:20:26.211Z,32.10
2024-02-07T16:30:40.248Z,49.00
2024-02-07T16:35:47.939Z,66.10
2024-02-07T16:40:57.200Z,37.10
2024-02-07T16:46:05.450Z,16.60
2024-02-07T16:51:14.219Z,26.10
2024-02-07T16:56:22.507Z,44.70
2024-02-07T17:01:31.520Z,112.60
2024-02-07T17:06:39.980Z,169.00
2024-02-07T17:11:48.167Z,155.70
2024-02-07T17:16:55.408Z,81.00
2024-02-07T17:22:04.317Z,224.20
2024-02-07T17:27:12.423Z,222.80
2024-02-07T17:32:20.823Z,286.60
2024-02-07T17:37:29.585Z,381.50
2024-02-07T17:42:37.194Z,422.80
2024-02-07T17:47:46.224Z,198.30
2024-02-07T17:52:53.602Z,85.60
2024-02-07T17:58:00.981Z,266.50
2024-02-07T18:03:08.882Z,316.60
2024-02-07T18:08:17.154Z,205.50
2024-02-07T18:13:25.717Z,173.70
2024-02-07T18:18:34.324Z,211.80
2024-02-07T18:23:44.420Z,121.80
2024-02-07T18:28:52.493Z,113.50
2024-02-07T18:34:01.283Z,184.00
2024-02-07T18:39:10.138Z,288.10
2024-02-07T18:44:18.657Z,189.50
2024-02-07T18:49:27.829Z,88.80
2024-02-07T18:54:37.336Z,78.30
2024-02-07T18:59:46.162Z,80.30
2024-02-07T19:04:54.406Z,95.10
2024-02-07T19:10:03.436Z,142.40
2024-02-07T19:15:13.643Z,167.60
2024-02-07T19:20:22.562Z,67.50
2024-02-07T19:25:30.609Z,22.00
2024-02-07T19:30:38.670Z,9.00
2024-02-07T19:35:47.246Z,4.40
2024-02-07T19:40:55.773Z,2.50
2024-02-07T19:46:04.647Z,4.40
2024-02-07T19:51:14.435Z,3.10
2024-02-07T19:56:22.954Z,2.50
2024-02-07T20:01:30.826Z,66.30
2024-02-07T20:06:39.551Z,228.50
2024-02-07T20:11:47.905Z,114.60
2024-02-07T20:16:56.287Z,49.40
2024-02-07T20:22:06.904Z,14.20
2024-02-07T20:27:15.653Z,5.90
2024-02-07T20:32:25.505Z,4.80
2024-02-07T20:37:33.992Z,5.10
2024-02-07T20:42:43.223Z,6.60
2024-02-07T20:47:52.520Z,5.40
2024-02-07T20:53:01.932Z,4.00
2024-02-07T20:58:11.183Z,6.40
2024-02-07T21:03:19.808Z,5.70
2024-02-07T21:08:28.579Z,5.20
2024-02-07T21:13:38.045Z,5.80
2024-02-07T21:18:46.132Z,4.70
2024-02-07T21:23:55.101Z,3.50
2024-02-07T21:29:03.443Z,5.10
2024-02-07T21:34:12.046Z,5.70
2024-02-07T21:39:20.468Z,5.30
2024-02-07T21:44:27.763Z,3.90
2024-02-07T21:49:36.348Z,11.90
2024-02-07T21:54:44.793Z,3.60
2024-02-07T21:59:52.475Z,5.90
2024-02-07T22:04:59.737Z,3.60
2024-02-07T22:10:08.218Z,7.00
2024-02-07T22:15:15.854Z,4.10
2024-02-07T22:20:25.574Z,7.60
2024-02-07T22:25:34.074Z,6.80
2024-02-07T22:30:42.640Z,6.40
2024-02-07T22:35:51.735Z,9.00
2024-02-07T22:40:59.956Z,6.30
2024-02-07T22:46:08.541Z,5.60
2024-02-07T22:51:16.876Z,4.90
2024-02-07T22:56:25.033Z,5.40
2024-02-07T23:01:33.215Z,5.30
2024-02-07T23:06:41.527Z,4.80
2024-02-07T23:11:49.741Z,6.60
2024-02-07T23:16:57.753Z,5.20
2024-02-07T23:22:06.168Z,5.80
2024-02-07T23:27:14.286Z,5.50
2024-02-07T23:32:21.870Z,8.10
2024-02-07T23:37:29.222Z,4.50
2024-02-07T23:42:36.404Z,6.90
2024-02-07T23:47:44.423Z,8.00
2024-02-07T23:52:52.961Z,6.20
2024-02-07T23:58:01.189Z,5.10
